Time;durP1;ratioP1;P1;durP2;ratioP2;P2;SDS_P1;SDS_P2;PMS_P1;PMS_P2;Temp;Humidity;BMP_temperature;BMP_pressure;BME280_temperature;BME280_humidity;BME280_pressure;Samples;Min_cycle;Max_cycle;Signal;HPM_P1;HPM_P2
2022/09/17 00:02:13;;;;;;;2.93;1.23;;;10.20;91.10;;;;;;927153;152;27319;-79
2022/09/17 00:04:40;;;;;;;2.83;1.30;;;10.20;91.30;;;;;;926394;151;27828;-79
2022/09/17 00:07:06;;;;;;;2.00;1.20;;;10.20;91.40;;;;;;927714;152;27475;-78
2022/09/17 00:09:33;;;;;;;1.60;1.20;;;10.10;91.40;;;;;;927316;151;27464;-79
2022/09/17 00:12:00;;;;;;;3.77;1.60;;;10.10;91.60;;;;;;927527;152;27285;-79
2022/09/17 00:14:26;;;;;;;3.03;1.10;;;10.10;91.60;;;;;;927180;152;27433;-78
2022/09/17 00:16:53;;;;;;;3.17;1.77;;;10.10;91.70;;;;;;927927;152;27328;-78
2022/09/17 00:19:19;;;;;;;2.37;1.40;;;10.10;91.80;;;;;;927158;151;27352;-78
2022/09/17 00:21:46;;;;;;;1.50;1.40;;;10.10;91.80;;;;;;927871;152;27407;-78
2022/09/17 00:24:12;;;;;;;3.43;1.40;;;10.10;91.80;;;;;;927098;152;28708;-78
2022/09/17 00:26:39;;;;;;;4.00;1.33;;;10.10;91.80;;;;;;927431;152;27400;-78
2022/09/17 00:29:06;;;;;;;2.83;1.37;;;10.00;91.90;;;;;;926930;152;27471;-78
2022/09/17 00:31:32;;;;;;;3.10;2.10;;;10.00;91.90;;;;;;926768;152;27494;-78
2022/09/17 00:33:59;;;;;;;1.60;1.40;;;10.00;92.00;;;;;;927129;152;27379;-78
2022/09/17 00:36:25;;;;;;;1.73;1.63;;;10.00;92.10;;;;;;927961;152;27391;-78
2022/09/17 00:38:52;;;;;;;2.10;1.30;;;9.90;92.10;;;;;;926262;151;27300;-78
2022/09/17 00:41:18;;;;;;;2.47;1.50;;;10.00;92.20;;;;;;926639;152;27344;-79
2022/09/17 00:43:45;;;;;;;2.90;1.43;;;10.00;92.30;;;;;;927670;151;27701;-79
2022/09/17 00:46:32;;;;;;;1.53;1.43;;;9.90;92.40;;;;;;926757;152;28218;-79
2022/09/17 00:48:59;;;;;;;1.77;1.30;;;9.90;92.50;;;;;;926851;152;27320;-80
2022/09/17 00:51:28;;;;;;;1.47;1.33;;;9.90;92.60;;;;;;927579;152;27442;-80
2022/09/17 00:53:55;;;;;;;2.20;1.47;;;9.90;92.70;;;;;;926681;151;27803;-80
2022/09/17 00:56:27;;;;;;;2.00;1.20;;;9.90;92.80;;;;;;927419;152;27453;-80
2022/09/17 00:58:53;;;;;;;1.13;1.03;;;9.90;92.90;;;;;;926630;152;27324;-80
2022/09/17 01:01:20;;;;;;;2.53;1.20;;;9.90;93.00;;;;;;927198;152;27401;-79
2022/09/17 01:03:46;;;;;;;1.90;1.40;;;9.90;93.20;;;;;;927057;152;27426;-79
2022/09/17 01:06:25;;;;;;;1.80;1.20;;;9.90;93.40;;;;;;927474;152;27371;-79
2022/09/17 01:09:09;;;;;;;3.17;1.43;;;9.90;93.50;;;;;;927018;151;27371;-79
2022/09/17 01:11:54;;;;;;;2.37;1.17;;;10.00;93.60;;;;;;881194;158;27440;-78
2022/09/17 01:14:26;;;;;;;1.97;1.10;;;10.00;93.70;;;;;;916452;152;27383;-78
2022/09/17 01:16:53;;;;;;;2.70;1.10;;;10.10;93.70;;;;;;912454;153;27388;-78
2022/09/17 01:19:49;;;;;;;4.73;1.73;;;10.10;93.80;;;;;;912153;153;27389;-79
2022/09/17 01:22:22;;;;;;;1.73;1.30;;;10.20;94.10;;;;;;962388;146;27325;-78
2022/09/17 01:25:06;;;;;;;2.13;1.90;;;10.20;94.10;;;;;;966599;145;27291;-78
2022/09/17 01:27:52;;;;;;;2.13;0.93;;;10.30;94.30;;;;;;968121;145;27294;-78
2022/09/17 01:30:28;;;;;;;3.90;1.53;;;10.40;94.30;;;;;;968689;145;27717;-79
2022/09/17 01:33:31;;;;;;;1.50;1.20;;;10.50;94.40;;;;;;967667;145;27290;-79
2022/09/17 01:36:03;;;;;;;1.80;1.13;;;10.50;94.40;;;;;;968708;145;27361;-79
2022/09/17 01:38:33;;;;;;;2.67;1.30;;;10.60;94.30;;;;;;967834;145;27266;-79
2022/09/17 01:41:14;;;;;;;3.97;0.83;;;10.70;94.40;;;;;;966747;145;27338;-79
2022/09/17 01:43:50;;;;;;;3.60;1.20;;;10.70;94.50;;;;;;959979;145;27428;-79
2022/09/17 01:46:19;;;;;;;3.27;1.00;;;10.80;94.50;;;;;;944042;145;27326;-79
2022/09/17 01:48:46;;;;;;;1.97;0.97;;;10.90;94.60;;;;;;967536;145;27310;-79
2022/09/17 01:51:13;;;;;;;1.43;1.17;;;11.00;94.70;;;;;;967874;145;27334;-79
2022/09/17 01:54:03;;;;;;;2.53;1.13;;;11.10;94.80;;;;;;966368;145;27333;-78
2022/09/17 01:56:33;;;;;;;2.37;1.30;;;11.10;94.80;;;;;;967590;145;27445;-79
2022/09/17 02:01:29;;;;;;;1.47;0.90;;;11.20;94.60;;;;;;974134;145;40806;-79
2022/09/17 02:03:57;;;;;;;2.20;1.27;;;11.40;94.60;;;;;;960337;148;27318;-79
2022/09/17 02:06:24;;;;;;;1.80;1.10;;;11.50;94.70;;;;;;960255;148;27303;-78
2022/09/17 02:08:53;;;;;;;1.17;0.90;;;11.60;94.50;;;;;;961498;148;27271;-78
2022/09/17 02:11:20;;;;;;;2.57;1.07;;;11.60;94.30;;;;;;959770;148;27318;-78
2022/09/17 02:13:55;;;;;;;1.87;1.00;;;11.70;94.20;;;;;;960776;148;27323;-78
2022/09/17 02:16:27;;;;;;;4.13;1.10;;;11.80;94.10;;;;;;960569;148;27300;-78
2022/09/17 02:19:05;;;;;;;2.23;1.17;;;11.80;93.80;;;;;;961252;147;27337;-78
2022/09/17 02:21:34;;;;;;;3.57;1.33;;;11.90;93.60;;;;;;960571;148;27306;-78
2022/09/17 02:24:18;;;;;;;3.80;1.27;;;11.90;93.40;;;;;;960355;148;27803;-79
2022/09/17 02:26:42;;;;;;;1.87;1.13;;;12.00;93.50;;;;;;928269;148;27331;-78
2022/09/17 02:29:09;;;;;;;2.80;1.00;;;12.00;93.30;;;;;;960982;148;27836;-79
2022/09/17 02:31:35;;;;;;;4.13;1.10;;;12.00;93.30;;;;;;960159;148;27327;-78
2022/09/17 02:34:02;;;;;;;2.87;0.90;;;12.00;93.30;;;;;;961352;148;27772;-78
2022/09/17 02:36:30;;;;;;;2.07;1.10;;;12.10;93.20;;;;;;961704;148;27282;-78
2022/09/17 02:38:55;;;;;;;1.30;1.17;;;12.10;93.20;;;;;;960671;148;27262;-79
2022/09/17 02:41:24;;;;;;;1.83;1.00;;;12.10;93.10;;;;;;960816;148;27335;-79
2022/09/17 02:44:25;;;;;;;2.57;1.10;;;12.20;93.10;;;;;;961720;148;27302;-80
2022/09/17 02:47:12;;;;;;;1.07;0.83;;;12.20;93.20;;;;;;957576;148;27347;-80
2022/09/17 02:50:03;;;;;;;2.17;0.97;;;12.20;92.90;;;;;;943997;151;27359;-78
2022/09/17 02:52:53;;;;;;;2.43;0.93;;;12.30;92.90;;;;;;943803;151;27455;-77
2022/09/17 02:55:20;;;;;;;5.33;1.00;;;12.30;92.90;;;;;;942974;150;27311;-79
2022/09/17 02:57:52;;;;;;;2.67;1.00;;;12.30;92.90;;;;;;943236;150;27324;-78
2022/09/17 03:00:19;;;;;;;2.70;1.00;;;12.30;92.90;;;;;;946375;150;27850;-79
2022/09/17 03:02:46;;;;;;;3.03;1.37;;;12.40;93.10;;;;;;953629;147;27411;-78
2022/09/17 03:05:12;;;;;;;4.10;1.00;;;12.40;93.10;;;;;;952606;150;27784;-78
2022/09/17 03:07:39;;;;;;;1.00;0.80;;;12.40;93.10;;;;;;954055;150;27420;-78
2022/09/17 03:10:05;;;;;;;2.67;1.00;;;12.40;93.20;;;;;;953675;150;27326;-78
2022/09/17 03:12:32;;;;;;;2.10;1.37;;;12.50;93.20;;;;;;953444;150;27323;-78
2022/09/17 03:14:58;;;;;;;3.67;1.20;;;12.50;93.30;;;;;;953388;150;27425;-79
2022/09/17 03:17:25;;;;;;;3.40;1.47;;;12.50;93.30;;;;;;953771;147;27420;-79
2022/09/17 03:19:51;;;;;;;2.53;1.07;;;12.50;93.30;;;;;;953548;148;27371;-78
2022/09/17 03:22:18;;;;;;;4.93;2.07;;;12.50;93.40;;;;;;953553;150;27373;-78
2022/09/17 03:24:45;;;;;;;2.33;1.23;;;12.50;93.50;;;;;;953693;147;27441;-79
2022/09/17 03:27:11;;;;;;;3.00;1.10;;;12.50;93.60;;;;;;953516;150;27306;-78
2022/09/17 03:29:38;;;;;;;1.33;1.13;;;12.50;93.60;;;;;;952888;150;27276;-78
2022/09/17 03:32:04;;;;;;;3.17;1.27;;;12.50;93.70;;;;;;953521;147;27332;-78
2022/09/17 03:34:31;;;;;;;2.10;1.10;;;12.50;93.70;;;;;;953452;150;28016;-77
2022/09/17 03:36:58;;;;;;;2.53;1.53;;;12.50;93.80;;;;;;953267;149;27270;-78
2022/09/17 03:39:24;;;;;;;2.67;1.37;;;12.50;93.80;;;;;;953125;148;27408;-78
2022/09/17 03:41:51;;;;;;;3.73;1.43;;;12.50;93.80;;;;;;953900;150;27351;-78
2022/09/17 03:44:18;;;;;;;2.73;1.00;;;12.50;93.80;;;;;;953223;150;27409;-78
2022/09/17 03:46:44;;;;;;;2.47;1.30;;;12.50;93.80;;;;;;953621;147;27398;-79
2022/09/17 03:49:11;;;;;;;2.80;1.10;;;12.50;93.90;;;;;;953169;150;27327;-78
2022/09/17 03:51:37;;;;;;;3.07;1.40;;;12.50;93.90;;;;;;953631;150;27256;-78
2022/09/17 03:54:04;;;;;;;2.23;0.97;;;12.50;94.00;;;;;;953825;150;27237;-78
2022/09/17 03:56:30;;;;;;;0.93;0.90;;;12.50;94.10;;;;;;953772;147;27422;-79
2022/09/17 03:58:57;;;;;;;4.83;1.40;;;12.50;94.10;;;;;;952843;150;27307;-78
2022/09/17 04:01:23;;;;;;;2.83;1.27;;;12.50;94.30;;;;;;946389;147;27334;-78
2022/09/17 04:03:50;;;;;;;2.30;1.30;;;12.50;94.20;;;;;;937678;152;27340;-78
2022/09/17 04:06:17;;;;;;;2.37;1.17;;;12.50;94.10;;;;;;938065;152;27301;-78
2022/09/17 04:08:43;;;;;;;1.87;0.90;;;12.50;94.10;;;;;;937983;152;27442;-79
2022/09/17 04:11:10;;;;;;;2.73;1.03;;;12.50;94.20;;;;;;938071;151;27430;-78
2022/09/17 04:13:36;;;;;;;4.03;1.40;;;12.50;94.30;;;;;;937829;152;27342;-78
2022/09/17 04:16:03;;;;;;;1.50;1.10;;;12.50;94.30;;;;;;937419;152;27297;-78
2022/09/17 04:18:30;;;;;;;2.93;1.10;;;12.50;94.30;;;;;;937361;150;27365;-78
2022/09/17 04:20:56;;;;;;;2.17;1.30;;;12.50;94.40;;;;;;937989;151;27282;-78
2022/09/17 04:23:23;;;;;;;2.13;1.20;;;12.50;94.40;;;;;;936995;150;27337;-79
2022/09/17 04:25:49;;;;;;;4.10;1.43;;;12.50;94.40;;;;;;937062;150;27418;-78
2022/09/17 04:28:16;;;;;;;3.60;1.70;;;12.50;94.50;;;;;;936996;152;27375;-78
2022/09/17 04:30:43;;;;;;;3.53;1.47;;;12.50;94.60;;;;;;937869;152;27386;-78
2022/09/17 04:33:09;;;;;;;1.83;1.10;;;12.50;94.70;;;;;;937449;152;27388;-78
2022/09/17 04:35:36;;;;;;;3.60;1.60;;;12.50;94.80;;;;;;938052;149;27401;-79
2022/09/17 04:38:02;;;;;;;2.77;1.50;;;12.50;94.80;;;;;;938182;151;27353;-78
2022/09/17 04:40:29;;;;;;;3.07;1.33;;;12.50;94.80;;;;;;938054;151;27377;-78
2022/09/17 04:42:55;;;;;;;3.03;1.30;;;12.50;94.90;;;;;;937464;152;27361;-78
2022/09/17 04:45:22;;;;;;;3.93;1.60;;;12.50;94.90;;;;;;937796;150;27403;-78
2022/09/17 04:47:51;;;;;;;2.03;1.40;;;12.50;94.90;;;;;;938059;150;27369;-78
2022/09/17 04:50:15;;;;;;;3.17;1.43;;;12.50;94.90;;;;;;936394;152;27470;-78
2022/09/17 04:52:42;;;;;;;2.53;1.50;;;12.50;95.00;;;;;;937390;149;27373;-79
2022/09/17 04:55:09;;;;;;;2.20;1.30;;;12.50;95.10;;;;;;937748;151;27390;-78
2022/09/17 04:57:35;;;;;;;3.10;1.30;;;12.50;95.00;;;;;;937384;151;27386;-78
2022/09/17 05:00:02;;;;;;;3.47;1.30;;;12.50;95.10;;;;;;937939;151;27274;-78
2022/09/17 05:02:28;;;;;;;3.10;1.33;;;12.50;95.10;;;;;;944620;150;27418;-79
2022/09/17 05:04:55;;;;;;;3.87;1.60;;;12.50;95.10;;;;;;948688;148;27440;-78
2022/09/17 05:07:21;;;;;;;4.93;2.60;;;12.50;95.20;;;;;;947872;151;27269;-78
2022/09/17 05:09:48;;;;;;;4.20;1.63;;;12.40;95.20;;;;;;947617;151;27427;-78
2022/09/17 05:12:15;;;;;;;3.67;1.40;;;12.50;95.30;;;;;;948035;151;27308;-78
2022/09/17 05:14:41;;;;;;;2.20;1.50;;;12.50;95.30;;;;;;948665;151;27444;-79
2022/09/17 05:17:08;;;;;;;1.17;1.07;;;12.40;95.40;;;;;;948101;151;27376;-78
2022/09/17 05:19:34;;;;;;;1.37;1.23;;;12.40;95.40;;;;;;948301;151;27353;-78
2022/09/17 05:22:01;;;;;;;1.73;1.50;;;12.40;95.50;;;;;;948488;151;27464;-78
2022/09/17 05:24:27;;;;;;;1.77;1.67;;;12.40;95.60;;;;;;947900;151;27284;-78
2022/09/17 05:26:54;;;;;;;4.47;1.80;;;12.40;95.60;;;;;;949175;148;27433;-78
2022/09/17 05:29:21;;;;;;;5.60;1.40;;;12.40;95.60;;;;;;948584;151;27371;-78
2022/09/17 05:31:47;;;;;;;3.00;1.80;;;12.40;95.60;;;;;;948183;151;28306;-77
2022/09/17 05:34:14;;;;;;;4.03;1.40;;;12.40;95.80;;;;;;948706;151;27324;-78
2022/09/17 05:36:40;;;;;;;3.23;1.60;;;12.40;95.80;;;;;;948885;151;27431;-78
2022/09/17 05:39:07;;;;;;;1.87;1.40;;;12.40;96.00;;;;;;948219;151;27273;-78
2022/09/17 05:41:34;;;;;;;1.93;1.40;;;12.40;96.00;;;;;;948705;151;27471;-79
2022/09/17 05:44:00;;;;;;;2.77;1.43;;;12.40;96.00;;;;;;948733;151;27352;-78
2022/09/17 05:46:27;;;;;;;3.77;1.60;;;12.40;96.20;;;;;;948412;148;27310;-78
2022/09/17 05:48:56;;;;;;;4.17;1.50;;;12.40;96.30;;;;;;948893;148;27385;-78
2022/09/17 05:51:23;;;;;;;2.57;1.20;;;12.40;96.40;;;;;;948545;148;27258;-78
2022/09/17 05:53:49;;;;;;;3.83;1.37;;;12.40;96.50;;;;;;948877;151;27704;-79
2022/09/17 05:56:16;;;;;;;1.60;1.23;;;12.40;96.60;;;;;;948340;151;27371;-79
2022/09/17 05:58:43;;;;;;;2.23;1.40;;;12.50;96.70;;;;;;947683;151;27412;-78
2022/09/17 06:01:14;;;;;;;3.03;1.17;;;12.50;96.60;;;;;;948242;151;27285;-78
2022/09/17 06:03:36;;;;;;;3.87;1.60;;;12.50;96.50;;;;;;939892;148;27455;-78
2022/09/17 06:06:02;;;;;;;3.70;1.40;;;12.50;96.40;;;;;;938161;151;27403;-78
2022/09/17 06:08:29;;;;;;;2.57;1.37;;;12.50;96.30;;;;;;937568;150;27343;-78
2022/09/17 06:10:56;;;;;;;1.50;1.40;;;12.50;96.20;;;;;;937511;152;27377;-78
2022/09/17 06:13:22;;;;;;;3.73;1.57;;;12.50;96.10;;;;;;936777;152;27357;-79
2022/09/17 06:15:49;;;;;;;1.67;1.43;;;12.50;96.20;;;;;;938275;152;27389;-78
2022/09/17 06:18:15;;;;;;;3.53;2.20;;;12.50;96.10;;;;;;936370;152;27320;-80
2022/09/17 06:20:42;;;;;;;2.23;1.23;;;12.50;96.20;;;;;;938081;149;27422;-78
2022/09/17 06:23:08;;;;;;;2.57;1.43;;;12.50;96.50;;;;;;937937;150;27445;-78
2022/09/17 06:25:35;;;;;;;5.33;1.70;;;12.50;97.10;;;;;;937578;152;27314;-78
2022/09/17 06:28:02;;;;;;;3.30;1.60;;;12.60;98.10;;;;;;938257;151;27844;-79
2022/09/17 06:30:28;;;;;;;2.20;1.37;;;12.80;99.20;;;;;;937516;149;27411;-79
2022/09/17 06:32:55;;;;;;;3.03;1.70;;;13.00;99.90;;;;;;937233;151;27386;-79
2022/09/17 06:35:21;;;;;;;3.95;1.30;;;13.40;99.90;;;;;;938091;150;27457;-79
2022/09/17 06:37:48;;;;;;;1.57;1.12;;;14.00;99.90;;;;;;937655;152;27360;-79
2022/09/17 06:40:15;;;;;;;2.42;1.20;;;14.70;99.90;;;;;;937241;152;27234;-79
2022/09/17 06:42:41;;;;;;;1.45;1.15;;;15.40;99.90;;;;;;937699;151;27417;-79
2022/09/17 06:45:08;;;;;;;2.05;1.40;;;16.10;99.90;;;;;;936686;152;27329;-79
2022/09/17 06:47:34;;;;;;;1.25;1.05;;;16.70;99.50;;;;;;937293;149;27414;-79
2022/09/17 06:50:01;;;;;;;1.90;1.60;;;17.20;96.80;;;;;;937279;152;27374;-79
2022/09/17 06:52:28;;;;;;;4.50;1.60;;;17.50;94.10;;;;;;937351;151;27449;-79
2022/09/17 06:54:54;;;;;;;3.75;1.20;;;17.80;91.90;;;;;;937578;152;27321;-79
2022/09/17 06:57:21;;;;;;;1.62;1.37;;;17.90;90.40;;;;;;937966;152;27227;-79
2022/09/17 06:59:49;;;;;;;2.17;1.62;;;17.90;90.00;;;;;;937506;152;27412;-79
2022/09/17 07:02:14;;;;;;;2.40;1.32;;;18.00;90.10;;;;;;937726;151;27353;-79
2022/09/17 07:04:40;;;;;;;2.15;1.40;;;18.10;90.50;;;;;;938033;151;27378;-79
2022/09/17 07:07:08;;;;;;;3.08;1.70;;;18.30;90.20;;;;;;937572;152;27282;-79
2022/09/17 07:09:34;;;;;;;4.53;1.55;;;18.50;90.30;;;;;;937208;152;27422;-79
2022/09/17 07:12:00;;;;;;;2.92;1.67;;;18.70;88.80;;;;;;937537;150;27353;-80
2022/09/17 07:14:27;;;;;;;1.45;1.35;;;19.00;90.00;;;;;;937787;152;27369;-80
2022/09/17 07:16:53;;;;;;;3.75;1.52;;;19.40;90.80;;;;;;938233;152;27417;-79
2022/09/17 07:19:20;;;;;;;3.17;1.60;;;19.90;91.70;;;;;;937888;149;27384;-80
2022/09/17 07:21:47;;;;;;;1.52;1.30;;;20.50;91.40;;;;;;938453;152;27448;-80
2022/09/17 07:24:13;;;;;;;3.12;2.20;;;21.10;90.70;;;;;;936971;152;27263;-80
2022/09/17 07:26:40;;;;;;;2.45;1.62;;;21.80;90.10;;;;;;937509;151;27376;-80
2022/09/17 07:29:06;;;;;;;3.50;1.50;;;22.50;88.40;;;;;;937928;151;27346;-80
2022/09/17 07:31:33;;;;;;;2.08;1.42;;;23.30;84.20;;;;;;938013;152;27444;-80
2022/09/17 07:34:00;;;;;;;1.37;1.27;;;23.90;80.30;;;;;;938260;151;27359;-81
2022/09/17 07:36:26;;;;;;;4.28;1.45;;;24.50;78.40;;;;;;937671;152;27314;-80
2022/09/17 07:38:53;;;;;;;3.00;1.52;;;25.00;75.40;;;;;;937856;151;27299;-80
2022/09/17 07:41:19;;;;;;;3.77;1.65;;;25.50;73.30;;;;;;938012;149;27359;-81
2022/09/17 07:43:46;;;;;;;3.22;1.80;;;26.00;71.80;;;;;;937943;152;28341;-80
2022/09/17 07:46:12;;;;;;;4.25;1.40;;;26.40;70.30;;;;;;937658;152;27256;-81
2022/09/17 07:48:39;;;;;;;2.17;1.40;;;26.90;68.70;;;;;;937233;152;27440;-81
2022/09/17 07:51:06;;;;;;;1.62;1.35;;;27.30;66.60;;;;;;937590;150;27361;-81
2022/09/17 07:53:32;;;;;;;2.83;1.85;;;27.70;65.40;;;;;;937910;152;27354;-81
2022/09/17 07:55:59;;;;;;;4.22;1.77;;;28.10;64.70;;;;;;937664;151;27294;-81
2022/09/17 07:58:32;;;;;;;5.70;1.67;;;28.50;63.90;;;;;;937802;151;27335;-81
2022/09/17 08:01:01;;;;;;;2.45;1.80;;;28.90;62.80;;;;;;937694;151;27396;-81
2022/09/17 08:03:27;;;;;;;3.15;2.20;;;29.20;61.20;;;;;;936694;151;27370;-81
2022/09/17 08:05:54;;;;;;;4.22;1.65;;;29.60;60.50;;;;;;937884;152;27330;-81
2022/09/17 08:08:20;;;;;;;2.33;1.40;;;29.90;60.30;;;;;;936995;151;26247;-81
2022/09/17 08:10:47;;;;;;;4.30;1.57;;;30.20;59.60;;;;;;937924;150;27938;-81
2022/09/17 08:13:14;;;;;;;3.85;1.52;;;30.50;58.40;;;;;;936911;152;26365;-81
2022/09/17 08:15:40;;;;;;;2.80;1.90;;;30.70;56.60;;;;;;937702;152;27280;-81
2022/09/17 08:18:07;;;;;;;3.52;1.80;;;30.60;54.60;;;;;;937998;152;27358;-81
2022/09/17 08:20:33;;;;;;;3.10;1.92;;;30.30;53.30;;;;;;937742;151;27334;-80
2022/09/17 08:23:00;;;;;;;4.00;1.87;;;30.00;53.30;;;;;;937969;152;27380;-81
2022/09/17 08:25:27;;;;;;;3.12;1.60;;;29.70;53.40;;;;;;938124;151;27729;-81
2022/09/17 08:27:54;;;;;;;2.83;1.30;;;29.60;53.90;;;;;;936850;151;27346;-81
2022/09/17 08:30:20;;;;;;;3.62;1.55;;;29.60;54.90;;;;;;937025;152;27466;-81
2022/09/17 08:32:46;;;;;;;4.25;1.85;;;29.60;55.00;;;;;;937674;152;27321;-81
2022/09/17 08:35:15;;;;;;;1.87;1.42;;;29.90;55.40;;;;;;937593;152;27307;-81
2022/09/17 08:37:40;;;;;;;3.62;1.80;;;30.20;55.00;;;;;;937005;152;27280;-80
2022/09/17 08:40:06;;;;;;;3.47;1.77;;;30.40;54.00;;;;;;938069;149;27288;-81
2022/09/17 08:42:42;;;;;;;4.42;1.60;;;30.60;53.00;;;;;;936573;149;27283;-81
2022/09/17 08:45:08;;;;;;;2.72;1.42;;;30.50;51.80;;;;;;935587;152;27973;-80
2022/09/17 08:47:37;;;;;;;2.70;1.70;;;30.30;51.00;;;;;;937233;149;27362;-80
2022/09/17 08:50:04;;;;;;;4.45;1.57;;;29.90;50.00;;;;;;937069;152;27330;-80
2022/09/17 08:52:55;;;;;;;2.92;1.65;;;29.30;49.50;;;;;;936869;152;27283;-80
2022/09/17 08:55:39;;;;;;;4.53;1.60;;;28.60;49.20;;;;;;937533;149;27347;-80
2022/09/17 08:58:12;;;;;;;2.22;1.30;;;27.70;49.40;;;;;;936539;149;28171;-80
2022/09/17 09:00:42;;;;;;;3.35;2.00;;;26.90;49.60;;;;;;936179;149;27276;-80
2022/09/17 09:03:14;;;;;;;1.30;1.12;;;26.00;49.70;;;;;;936582;152;27396;-79
2022/09/17 09:05:52;;;;;;;2.83;1.52;;;25.20;50.20;;;;;;937201;151;27434;-80
2022/09/17 09:08:36;;;;;;;1.30;1.20;;;24.50;51.10;;;;;;937326;152;27732;-80
2022/09/17 09:11:03;;;;;;;1.42;1.27;;;24.10;53.20;;;;;;937732;149;27620;-80
2022/09/17 09:13:38;;;;;;;1.40;1.25;;;23.80;54.60;;;;;;937051;149;27403;-80
2022/09/17 09:16:11;;;;;;;3.05;1.47;;;23.90;55.20;;;;;;937937;152;27396;-80
2022/09/17 09:18:37;;;;;;;3.83;1.60;;;24.10;55.80;;;;;;936754;152;27358;-80
2022/09/17 09:21:15;;;;;;;3.00;1.47;;;24.20;56.40;;;;;;937334;152;27310;-80
2022/09/17 09:23:42;;;;;;;2.75;1.70;;;24.50;56.00;;;;;;938053;152;27306;-80
2022/09/17 09:26:08;;;;;;;3.85;1.40;;;24.60;55.00;;;;;;935236;152;27311;-80
2022/09/17 09:28:43;;;;;;;2.45;1.35;;;24.70;54.30;;;;;;936366;151;27429;-80
2022/09/17 09:31:16;;;;;;;1.95;1.22;;;24.60;53.50;;;;;;937138;152;27338;-80
2022/09/17 09:33:42;;;;;;;1.37;1.05;;;24.40;53.20;;;;;;918967;152;27429;-80
2022/09/17 09:36:12;;;;;;;3.45;1.20;;;24.20;53.10;;;;;;937916;149;27413;-80
2022/09/17 09:38:41;;;;;;;2.67;1.05;;;24.00;53.40;;;;;;929319;152;27400;-80
2022/09/17 09:41:08;;;;;;;3.02;1.40;;;23.70;53.60;;;;;;929644;152;27389;-79
2022/09/17 09:43:46;;;;;;;2.85;1.40;;;23.50;53.50;;;;;;936180;150;27362;-79
2022/09/17 09:46:24;;;;;;;2.45;1.57;;;23.30;53.40;;;;;;923189;152;27349;-80
2022/09/17 09:48:54;;;;;;;2.02;1.40;;;23.00;53.40;;;;;;920614;152;27459;-79
2022/09/17 09:51:35;;;;;;;2.87;1.60;;;22.60;53.50;;;;;;935978;150;27320;-80
2022/09/17 09:54:39;;;;;;;5.20;1.75;;;22.30;53.80;;;;;;931633;151;27801;-80
2022/09/17 09:57:11;;;;;;;2.92;1.35;;;22.00;54.10;;;;;;942443;151;27305;-79
2022/09/17 09:59:40;;;;;;;2.33;1.50;;;21.70;54.50;;;;;;929127;152;27392;-79
2022/09/17 10:02:05;;;;;;;3.90;2.35;;;21.60;54.80;;;;;;929859;152;27336;-79
2022/09/17 10:04:31;;;;;;;2.45;1.70;;;21.40;55.30;;;;;;930339;152;27403;-79
2022/09/17 10:07:10;;;;;;;2.05;1.30;;;21.30;56.00;;;;;;922743;155;27351;-79
2022/09/17 10:09:37;;;;;;;1.50;1.20;;;21.20;56.10;;;;;;939174;151;27321;-79
2022/09/17 10:12:12;;;;;;;1.77;1.40;;;21.10;56.20;;;;;;935140;151;27356;-79
2022/09/17 10:14:38;;;;;;;2.35;1.30;;;21.00;56.70;;;;;;934126;151;27401;-79
2022/09/17 10:17:23;;;;;;;2.75;1.75;;;20.90;57.30;;;;;;924980;155;27465;-79
2022/09/17 10:20:04;;;;;;;3.47;1.62;;;20.90;57.80;;;;;;924735;153;27492;-80
2022/09/17 10:22:31;;;;;;;4.25;1.37;;;20.90;58.00;;;;;;925586;152;27354;-80
2022/09/17 10:24:58;;;;;;;2.00;1.30;;;21.00;57.90;;;;;;924208;154;27408;-80
2022/09/17 10:27:24;;;;;;;3.20;1.60;;;21.00;57.40;;;;;;923568;153;27314;-80
2022/09/17 10:29:51;;;;;;;4.62;1.60;;;21.00;57.20;;;;;;918223;152;27390;-80
2022/09/17 10:32:20;;;;;;;2.80;1.30;;;21.00;56.70;;;;;;929773;151;27367;-80
2022/09/17 10:35:04;;;;;;;2.47;1.20;;;21.00;56.50;;;;;;931280;153;27409;-80
2022/09/17 10:37:43;;;;;;;1.55;1.45;;;20.90;55.80;;;;;;932670;149;28012;-80
2022/09/17 10:40:18;;;;;;;1.50;1.12;;;20.90;55.90;;;;;;933031;151;27475;-80
2022/09/17 10:42:45;;;;;;;2.05;1.17;;;20.80;55.80;;;;;;931086;149;27315;-80
2022/09/17 10:45:26;;;;;;;2.50;1.10;;;20.70;55.90;;;;;;933403;149;27331;-80
2022/09/17 10:47:52;;;;;;;3.20;1.80;;;20.70;56.00;;;;;;932401;151;27325;-80
2022/09/17 10:50:34;;;;;;;2.40;1.40;;;20.60;56.00;;;;;;925020;154;27382;-80
2022/09/17 10:53:03;;;;;;;1.98;1.30;;;20.60;56.20;;;;;;925549;155;27304;-80
2022/09/17 10:55:35;;;;;;;2.50;0.98;;;20.60;56.10;;;;;;925082;154;27979;-79
2022/09/17 10:58:08;;;;;;;2.95;0.90;;;20.60;55.90;;;;;;924570;154;27367;-79
2022/09/17 11:00:43;;;;;;;3.50;1.60;;;20.60;55.70;;;;;;925183;154;27331;-79
2022/09/17 11:03:25;;;;;;;2.95;1.25;;;20.60;55.60;;;;;;925283;155;27278;-79
2022/09/17 11:05:57;;;;;;;2.47;1.02;;;20.60;55.80;;;;;;927799;152;27336;-80
2022/09/17 11:08:24;;;;;;;4.45;1.57;;;20.60;56.70;;;;;;928797;152;27452;-79
2022/09/17 11:11:02;;;;;;;2.33;1.07;;;20.60;56.20;;;;;;929934;152;27456;-79
2022/09/17 11:13:41;;;;;;;1.25;0.90;;;20.60;56.30;;;;;;898394;152;27407;-79
2022/09/17 11:16:16;;;;;;;1.98;1.12;;;20.60;56.10;;;;;;929101;152;27378;-80
2022/09/17 11:18:43;;;;;;;0.70;0.70;;;20.70;55.90;;;;;;917810;152;27385;-80
2022/09/17 11:21:31;;;;;;;1.62;0.82;;;20.70;55.60;;;;;;928605;152;27384;-80
2022/09/17 11:24:22;;;;;;;1.77;1.12;;;20.70;55.50;;;;;;929270;152;27502;-80
2022/09/17 11:26:54;;;;;;;3.65;1.42;;;20.70;55.30;;;;;;929877;152;28356;-79
2022/09/17 11:29:42;;;;;;;2.15;1.30;;;20.60;55.00;;;;;;929108;151;27358;-80
2022/09/17 11:32:33;;;;;;;1.55;0.93;;;20.60;54.80;;;;;;930409;151;27432;-80
2022/09/17 11:35:00;;;;;;;2.35;1.22;;;20.50;54.60;;;;;;909662;152;27714;-80
2022/09/17 11:37:26;;;;;;;5.22;1.40;;;20.40;54.60;;;;;;931643;149;27317;-79
2022/09/17 11:39:56;;;;;;;3.08;1.32;;;20.30;54.10;;;;;;932166;150;27354;-80
2022/09/17 11:42:22;;;;;;;2.22;0.82;;;20.20;54.20;;;;;;930200;149;27440;-80
2022/09/17 11:44:54;;;;;;;3.10;1.10;;;20.10;54.60;;;;;;931588;149;27327;-80
2022/09/17 11:47:33;;;;;;;3.80;1.52;;;20.00;54.90;;;;;;931182;151;27494;-80
2022/09/17 11:50:02;;;;;;;3.25;1.05;;;19.90;55.00;;;;;;932820;151;27406;-80
2022/09/17 11:52:38;;;;;;;2.22;0.60;;;19.90;55.10;;;;;;931856;151;27424;-80
2022/09/17 11:55:23;;;;;;;2.00;0.65;;;20.00;55.60;;;;;;932275;151;27342;-80
2022/09/17 11:57:49;;;;;;;3.40;1.05;;;20.10;55.70;;;;;;933464;151;27345;-80
2022/09/17 12:00:19;;;;;;;1.70;0.95;;;20.10;55.50;;;;;;932458;151;27358;-80
2022/09/17 12:02:58;;;;;;;1.55;0.98;;;20.20;55.10;;;;;;932306;151;27383;-80
2022/09/17 12:05:33;;;;;;;6.17;1.25;;;20.20;54.90;;;;;;933334;151;28344;-80
2022/09/17 12:08:17;;;;;;;1.82;1.10;;;20.10;54.90;;;;;;933916;150;27904;-80
2022/09/17 12:10:59;;;;;;;1.50;1.07;;;20.10;55.80;;;;;;934739;151;27342;-80
2022/09/17 12:13:34;;;;;;;2.30;0.90;;;20.00;55.30;;;;;;932724;151;27466;-80
2022/09/17 12:16:00;;;;;;;2.85;1.40;;;20.00;56.20;;;;;;931908;151;27315;-79
2022/09/17 12:18:46;;;;;;;1.90;1.15;;;20.00;56.40;;;;;;926840;151;27319;-79
2022/09/17 12:21:12;;;;;;;0.90;0.80;;;19.90;56.90;;;;;;933213;151;27268;-79
2022/09/17 12:23:45;;;;;;;1.15;0.42;;;19.70;57.00;;;;;;931682;151;27343;-79
2022/09/17 12:26:32;;;;;;;0.88;0.60;;;19.60;57.30;;;;;;922316;151;27369;-79
2022/09/17 12:29:29;;;;;;;1.32;0.55;;;19.30;57.60;;;;;;932094;151;27435;-79
2022/09/17 12:32:01;;;;;;;3.33;0.75;;;19.20;57.90;;;;;;932305;151;27599;-79
2022/09/17 12:34:52;;;;;;;1.42;0.70;;;19.10;58.30;;;;;;933472;151;27338;-80
2022/09/17 12:37:49;;;;;;;3.85;0.62;;;19.00;58.70;;;;;;933662;151;27327;-80
2022/09/17 12:40:25;;;;;;;1.90;0.80;;;19.00;59.30;;;;;;934411;151;27403;-80
2022/09/17 12:43:00;;;;;;;0.78;0.78;;;19.10;59.50;;;;;;932206;151;27405;-80
2022/09/17 12:45:44;;;;;;;0.65;0.50;;;19.20;59.60;;;;;;932855;151;28417;-81
2022/09/17 12:48:26;;;;;;;2.17;1.12;;;19.40;59.60;;;;;;933341;151;27414;-81
2022/09/17 12:51:14;;;;;;;0.37;0.37;;;19.50;59.30;;;;;;932232;151;27363;-80
2022/09/17 12:53:55;;;;;;;0.88;0.70;;;19.50;59.00;;;;;;934476;151;27328;-80
2022/09/17 12:56:25;;;;;;;1.10;0.70;;;19.60;58.60;;;;;;932575;151;27435;-80
2022/09/17 12:59:04;;;;;;;2.00;0.75;;;19.50;58.20;;;;;;932403;151;27472;-80
2022/09/17 13:01:30;;;;;;;1.35;0.53;;;19.50;58.10;;;;;;932875;151;27382;-80
2022/09/17 13:04:05;;;;;;;1.60;0.70;;;19.40;57.70;;;;;;932257;152;27348;-80
2022/09/17 13:06:31;;;;;;;1.20;0.80;;;19.40;57.80;;;;;;922056;151;27455;-80
2022/09/17 13:09:07;;;;;;;0.60;0.60;;;19.30;57.80;;;;;;931353;152;27368;-80